Time;durP1;ratioP1;P1;durP2;ratioP2;P2;SDS_P1;SDS_P2;PMS_P1;PMS_P2;Temp;Humidity;BMP_temperature;BMP_pressure;BME280_temperature;BME280_humidity;BME280_pressure;Samples;Min_cycle;Max_cycle;Signal;HPM_P1;HPM_P2
2021/01/10 00:01:18;;;;;;;10.63;7.05;;;;;;;1.12;68.03;98241.84;13099840;22;20133;-78
2021/01/10 00:06:38;;;;;;;15.60;6.80;;;;;;;1.10;68.44;98244.38;13120442;22;20027;-78
2021/01/10 00:11:57;;;;;;;11.90;6.82;;;;;;;1.06;68.15;98232.94;13144173;22;20023;-78
2021/01/10 00:17:17;;;;;;;11.70;7.63;;;;;;;1.12;68.67;98246.59;13120750;22;20030;-78
2021/01/10 00:22:37;;;;;;;10.43;7.10;;;;;;;1.13;67.95;98242.59;13121048;22;20027;-78
2021/01/10 00:27:58;;;;;;;9.98;7.22;;;;;;;1.17;68.19;98237.56;13079268;22;20023;-78
2021/01/10 00:33:18;;;;;;;9.35;6.50;;;;;;;1.17;68.39;98243.06;13097971;22;20018;-78
2021/01/10 00:38:38;;;;;;;10.30;6.75;;;;;;;1.14;68.33;98242.06;13103553;22;20034;-79
2021/01/10 00:43:57;;;;;;;12.23;6.68;;;;;;;1.20;68.46;98252.28;13144112;22;20050;-78
2021/01/10 00:49:17;;;;;;;10.27;6.80;;;;;;;1.22;68.64;98253.22;13119841;22;20057;-78
2021/01/10 00:54:37;;;;;;;8.65;6.05;;;;;;;1.27;68.37;98259.94;13120174;22;20054;-78
2021/01/10 00:59:59;;;;;;;9.27;6.63;;;;;;;1.29;68.46;98265.66;13098868;22;20533;-79
2021/01/10 01:05:21;;;;;;;8.43;6.28;;;;;;;1.27;68.30;98263.44;13141640;22;20062;-78
2021/01/10 01:10:48;;;;;;;9.23;6.40;;;;;;;1.29;68.75;98265.66;13097736;22;20078;-79
2021/01/10 01:16:08;;;;;;;8.13;5.78;;;;;;;1.29;69.12;98266.41;13142269;22;20036;-78
2021/01/10 01:21:28;;;;;;;9.98;6.05;;;;;;;1.27;68.83;98268.94;13120404;22;20027;-78
2021/01/10 01:26:48;;;;;;;7.25;5.32;;;;;;;1.29;69.07;98262.91;13121016;22;20030;-78
2021/01/10 01:32:08;;;;;;;8.63;5.95;;;;;;;1.28;68.64;98264.91;13142785;22;20022;-78
2021/01/10 01:37:28;;;;;;;8.70;6.43;;;;;;;1.33;68.84;98277.84;13109177;22;20034;-78
2021/01/10 01:42:47;;;;;;;9.10;6.20;;;;;;;1.35;69.09;98274.56;13141766;22;20026;-78
2021/01/10 01:48:07;;;;;;;9.60;5.82;;;;;;;1.37;69.14;98278.31;13122277;22;20092;-78
2021/01/10 01:53:27;;;;;;;7.72;5.78;;;;;;;1.41;68.60;98278.00;13074543;22;20034;-78
2021/01/10 01:59:03;;;;;;;8.63;5.55;;;;;;;1.46;68.77;98284.72;13097830;22;20110;-78
2021/01/10 02:04:46;;;;;;;9.63;5.90;;;;;;;1.48;68.77;98282.19;13052920;22;20033;-78
2021/01/10 02:10:11;;;;;;;8.57;5.70;;;;;;;1.42;68.62;98280.22;13118816;22;20042;-78
2021/01/10 02:15:32;;;;;;;;;;;;;;;1.40;69.53;98282.03;13119162;22;20030;-78
2021/01/10 02:20:52;;;;;;;8.73;6.07;;;;;;;1.43;69.11;98280.97;13120032;22;19915;-78
2021/01/10 02:26:11;;;;;;;9.27;6.18;;;;;;;1.36;69.40;98281.59;13096099;22;20030;-78
2021/01/10 02:31:31;;;;;;;8.20;5.53;;;;;;;1.35;68.72;98293.81;13096636;22;20357;-78
2021/01/10 02:37:09;;;;;;;7.22;5.40;;;;;;;1.37;68.81;98289.31;13087345;22;20105;-78
2021/01/10 02:42:48;;;;;;;10.00;6.15;;;;;;;1.32;68.79;98286.63;13095582;22;20026;-78
2021/01/10 02:48:11;;;;;;;10.00;6.30;;;;;;;1.35;68.89;98285.56;13098869;22;20100;-78
2021/01/10 02:53:30;;;;;;;9.32;7.40;;;;;;;1.30;69.81;98276.13;13074518;22;20027;-78
2021/01/10 02:58:51;;;;;;;11.00;7.88;;;;;;;1.26;69.16;98275.69;13100540;22;20031;-78
2021/01/10 03:04:12;;;;;;;11.98;7.90;;;;;;;1.19;69.14;98279.03;13100165;22;20053;-78
2021/01/10 03:09:32;;;;;;;11.20;7.65;;;;;;;1.17;68.80;98273.31;13078326;22;20023;-78
2021/01/10 03:14:58;;;;;;;12.38;8.48;;;;;;;1.14;69.70;98264.06;13121567;22;20031;-78
2021/01/10 03:20:20;;;;;;;12.50;8.32;;;;;;;1.13;69.38;98270.09;13101464;22;20394;-78
2021/01/10 03:25:40;;;;;;;12.35;7.60;;;;;;;1.07;68.71;98270.16;13077975;22;20027;-78
2021/01/10 03:30:59;;;;;;;11.93;7.72;;;;;;;1.10;69.63;98271.13;13120978;22;20027;-78
2021/01/10 03:36:19;;;;;;;10.05;7.40;;;;;;;1.10;69.20;98273.88;13092308;22;20094;-78
2021/01/10 03:41:39;;;;;;;11.05;7.05;;;;;;;1.08;69.56;98268.91;13144054;22;20058;-78
2021/01/10 03:46:59;;;;;;;11.18;7.40;;;;;;;1.17;69.24;98278.06;13077388;22;20495;-78
2021/01/10 03:52:18;;;;;;;11.45;7.45;;;;;;;1.17;69.44;98276.06;13120932;22;20098;-78
2021/01/10 03:57:39;;;;;;;9.65;6.75;;;;;;;1.23;69.79;98279.47;13098930;22;20026;-78
2021/01/10 04:02:58;;;;;;;10.75;6.93;;;;;;;1.28;69.69;98281.41;13099244;22;20080;-78
2021/01/10 04:08:18;;;;;;;10.40;6.43;;;;;;;1.28;69.44;98281.41;13122343;22;20027;-78
2021/01/10 04:13:38;;;;;;;10.18;6.60;;;;;;;1.33;69.86;98288.84;13120509;22;20030;-78
2021/01/10 04:18:58;;;;;;;9.55;6.40;;;;;;;1.34;69.64;98286.84;13143769;22;20035;-78
2021/01/10 04:24:18;;;;;;;8.63;6.05;;;;;;;1.34;69.31;98290.34;13099373;22;20026;-78
2021/01/10 04:29:38;;;;;;;8.32;6.15;;;;;;;1.30;69.55;98284.38;13142575;22;20096;-78
2021/01/10 04:34:58;;;;;;;10.30;6.18;;;;;;;1.30;70.06;98289.88;13119053;22;20050;-78
2021/01/10 04:40:18;;;;;;;9.85;6.28;;;;;;;1.33;69.79;98282.59;13121094;22;20484;-77
2021/01/10 04:45:38;;;;;;;8.82;6.20;;;;;;;1.27;70.18;98274.44;13119749;22;20031;-78
2021/01/10 04:50:58;;;;;;;8.23;5.95;;;;;;;1.22;69.63;98285.50;13100124;22;20080;-78
2021/01/10 04:56:20;;;;;;;7.95;6.00;;;;;;;1.20;69.94;98285.28;13120449;22;20087;-78
2021/01/10 05:01:45;;;;;;;9.68;6.45;;;;;;;1.13;69.93;98292.09;13121753;22;20053;-78
2021/01/10 05:07:05;;;;;;;;;;;;;;;1.08;70.04;98292.91;13100610;22;20034;-79
2021/01/10 05:12:25;;;;;;;8.50;5.68;;;;;;;1.04;70.04;98284.94;13120596;22;19973;-78
2021/01/10 05:17:58;;;;;;;8.35;5.40;;;;;;;1.02;70.29;98301.22;13141452;22;20023;-78
2021/01/10 05:23:18;;;;;;;8.40;5.38;;;;;;;0.99;70.06;98298.75;13099084;22;20033;-79
2021/01/10 05:28:38;;;;;;;8.65;5.68;;;;;;;0.93;69.97;98295.31;13141632;22;20027;-78
2021/01/10 05:33:58;;;;;;;7.50;5.18;;;;;;;0.94;70.32;98303.03;13118983;22;20072;-78
2021/01/10 05:39:31;;;;;;;7.13;4.85;;;;;;;0.95;70.54;98303.78;13074558;22;20054;-78
2021/01/10 05:44:51;;;;;;;7.32;5.50;;;;;;;0.94;70.35;98308.53;13121129;22;20027;-78
2021/01/10 05:50:15;;;;;;;7.35;5.28;;;;;;;0.83;70.47;98298.41;13143232;22;20030;-77
2021/01/10 05:55:34;;;;;;;7.43;5.57;;;;;;;0.77;70.67;98313.47;13096570;22;20027;-78
2021/01/10 06:00:55;;;;;;;6.38;4.93;;;;;;;0.79;70.38;98308.97;13117889;22;20026;-78
2021/01/10 06:06:15;;;;;;;7.43;5.38;;;;;;;0.79;70.42;98300.72;13096587;22;20080;-80
2021/01/10 06:11:35;;;;;;;6.95;4.95;;;;;;;0.74;70.49;98311.75;13098159;22;20100;-79
2021/01/10 06:16:56;;;;;;;7.10;5.00;;;;;;;0.75;70.54;98313.22;13098077;22;20046;-78
2021/01/10 06:22:16;;;;;;;7.88;5.03;;;;;;;0.80;70.62;98331.69;13118625;22;20022;-78
2021/01/10 06:27:40;;;;;;;7.78;5.85;;;;;;;0.75;70.42;98324.22;13118872;22;20075;-78
2021/01/10 06:33:11;;;;;;;7.53;5.93;;;;;;;0.76;70.83;98325.72;13077987;22;20496;-78
2021/01/10 06:38:37;;;;;;;7.60;5.43;;;;;;;0.76;70.67;98326.44;13084281;22;20030;-78
2021/01/10 06:44:01;;;;;;;6.72;5.07;;;;;;;0.76;70.28;98340.19;13145563;22;20027;-78
2021/01/10 06:49:22;;;;;;;8.63;5.95;;;;;;;0.77;70.88;98333.47;13123962;22;20471;-79
2021/01/10 06:54:44;;;;;;;6.78;5.25;;;;;;;0.74;70.70;98339.22;13099961;22;20385;-78
2021/01/10 07:00:08;;;;;;;8.02;5.65;;;;;;;0.72;70.47;98342.50;13145239;22;20046;-78
2021/01/10 07:05:57;;;;;;;12.73;5.97;;;;;;;0.71;70.68;98341.00;13144921;22;20483;-78
2021/01/10 07:11:20;;;;;;;9.23;5.97;;;;;;;0.74;70.97;98348.22;13127142;22;20026;-78
2021/01/10 07:16:42;;;;;;;9.68;5.78;;;;;;;0.76;70.75;98337.44;13123281;22;20380;-78
2021/01/10 07:22:23;;;;;;;7.82;5.95;;;;;;;0.77;70.74;98347.22;13123762;22;20050;-79
2021/01/10 07:27:43;;;;;;;8.93;6.45;;;;;;;0.84;71.03;98346.63;13098427;22;20453;-78
2021/01/10 07:39:28;;;;;;;8.13;5.95;;;;;;;1.13;70.91;98347.09;13074532;22;20120;-82
2021/01/10 07:45:17;;;;;;;8.03;6.03;;;;;;;1.42;70.86;98349.00;13072658;22;20023;-80
2021/01/10 07:50:37;;;;;;;8.50;6.40;;;;;;;2.04;70.80;98364.75;13086267;22;20028;-80
2021/01/10 08:03:17;;;;;;;9.60;6.70;;;;;;;2.03;70.35;98379.78;13141915;22;20074;-82
2021/01/10 08:09:30;;;;;;;;;;;;;;;;;;;;;
2021/01/10 08:16:10;;;;;;;;;;;;;;;;;;;;;
2021/01/10 08:22:15;;;;;;;;;;;;;;;;;;;;;
2021/01/10 08:27:51;;;;;;;10.73;6.50;;;;;;;2.55;69.63;98373.00;13115367;22;20074;-80
2021/01/10 08:46:17;;;;;;;8.77;6.53;;;;;;;3.23;68.97;98383.63;13040251;22;20126;-74
2021/01/10 08:51:41;;;;;;;10.02;6.80;;;;;;;3.56;69.23;98385.75;13075024;22;20410;-75
2021/01/10 08:57:01;;;;;;;9.05;6.70;;;;;;;4.05;68.79;98390.03;13099022;22;20096;-75
2021/01/10 09:02:21;;;;;;;9.75;6.82;;;;;;;4.65;68.61;98391.97;13119820;22;20511;-74
2021/01/10 09:07:41;;;;;;;10.95;7.15;;;;;;;5.29;67.72;98397.63;13096390;22;20026;-72
2021/01/10 09:13:05;;;;;;;10.80;6.65;;;;;;;5.85;67.20;98404.41;13096932;22;20453;-72
2021/01/10 09:18:24;;;;;;;9.25;6.68;;;;;;;5.89;66.73;98407.59;13074811;22;20033;-73
2021/01/10 09:23:55;;;;;;;8.27;6.30;;;;;;;5.72;65.71;98405.28;13096588;22;20031;-73
2021/01/10 09:29:19;;;;;;;10.07;7.20;;;;;;;5.72;65.68;98410.09;13076818;22;20032;-73
2021/01/10 09:34:38;;;;;;;8.90;6.28;;;;;;;5.47;64.72;98413.25;13095991;22;20033;-75
2021/01/10 09:40:14;;;;;;;9.38;7.22;;;;;;;5.15;65.01;98405.28;13075036;22;20097;-76
2021/01/10 09:45:43;;;;;;;10.88;6.30;;;;;;;5.24;65.35;98411.63;13089761;22;20026;-76
2021/01/10 09:51:11;;;;;;;11.65;7.70;;;;;;;5.16;64.95;98400.50;13097120;22;20027;-77
2021/01/10 09:56:40;;;;;;;8.80;6.88;;;;;;;4.78;63.77;98402.97;13149617;22;20048;-77
2021/01/10 10:02:06;;;;;;;12.10;7.30;;;;;;;4.50;64.87;98398.81;13150470;22;20026;-78
2021/01/10 10:07:34;;;;;;;10.20;7.57;;;;;;;4.74;64.90;98386.72;13079479;22;20398;-77
2021/01/10 10:13:10;;;;;;;11.95;7.47;;;;;;;4.76;64.43;98380.63;13115793;22;20504;-75
2021/01/10 10:18:31;;;;;;;10.75;8.13;;;;;;;4.91;64.41;98368.94;13096571;22;20030;-75
2021/01/10 10:23:51;;;;;;;9.43;7.22;;;;;;;4.88;63.28;98371.50;13117851;22;20076;-74
2021/01/10 10:29:11;;;;;;;11.48;7.68;;;;;;;4.82;63.54;98357.06;13115465;22;20349;-74
2021/01/10 10:34:31;;;;;;;10.35;6.65;;;;;;;4.82;63.74;98368.13;13115224;22;20027;-75
2021/01/10 10:39:50;;;;;;;9.70;6.95;;;;;;;4.92;63.57;98370.41;13093464;22;20033;-73
2021/01/10 10:45:11;;;;;;;10.95;7.72;;;;;;;5.08;63.23;98367.22;13132214;22;20031;-76
2021/01/10 10:50:31;;;;;;;10.65;7.72;;;;;;;5.51;62.77;98354.78;13141423;22;20073;-77
2021/01/10 10:55:51;;;;;;;9.88;7.40;;;;;;;5.64;62.50;98345.59;13100930;22;20412;-77
2021/01/10 11:01:10;;;;;;;10.63;7.65;;;;;;;6.05;62.80;98343.94;13146551;22;20011;-79
2021/01/10 11:12:50;;;;;;;6.57;4.90;;;;;;;9.12;59.04;98337.63;13090951;22;20025;-79
2021/01/10 11:24:03;;;;;;;6.78;5.32;;;;;;;6.71;57.81;98338.31;13135337;22;20121;-76
2021/01/10 11:29:54;;;;;;;7.80;5.65;;;;;;;5.98;58.23;98332.28;13118656;22;20025;-79
2021/01/10 11:35:57;;;;;;;8.20;6.55;;;;;;;5.49;59.32;98331.66;12972080;22;20028;-76
2021/01/10 12:33:51;;;;;;;13.13;9.38;;;;;;;3.19;60.31;98323.28;13095500;22;20398;-83
2021/01/10 12:39:12;;;;;;;11.38;8.48;;;;;;;3.07;60.65;98317.19;13086071;22;20080;-80
2021/01/10 12:44:33;;;;;;;10.48;7.85;;;;;;;2.97;60.32;98316.13;13091856;22;20019;-81
2021/01/10 12:50:00;;;;;;;11.02;7.97;;;;;;;2.84;60.71;98300.31;13078479;22;20050;-81
2021/01/10 12:55:36;;;;;;;8.43;6.75;;;;;;;2.78;61.10;98301.69;13061382;22;20023;-82
2021/01/10 13:01:37;;;;;;;9.88;7.15;;;;;;;2.70;61.52;98301.59;13086974;22;20034;-81
2021/01/10 13:07:47;;;;;;;10.38;7.20;;;;;;;2.64;61.48;98298.19;13090934;22;20023;-82
2021/01/10 13:13:15;;;;;;;10.15;7.07;;;;;;;2.61;61.84;98295.75;12978584;22;20053;-80
2021/01/10 13:18:46;;;;;;;8.48;7.18;;;;;;;2.59;61.24;98297.00;13082806;22;20461;-82
2021/01/10 13:24:06;;;;;;;9.43;6.93;;;;;;;2.67;61.81;98308.16;13073954;22;20102;-77
2021/01/10 13:29:51;;;;;;;9.43;6.72;;;;;;;2.72;61.98;98298.31;13090722;22;20026;-82
2021/01/10 14:34:47;;;;;;;10.88;7.38;;;;;;;2.40;63.65;98326.63;12957289;22;20019;-80
2021/01/10 14:40:27;;;;;;;10.00;6.68;;;;;;;2.42;63.45;98321.34;13048719;22;20035;-80
2021/01/10 14:45:59;;;;;;;12.10;8.35;;;;;;;2.40;62.96;98323.88;13073944;22;20023;-79
2021/01/10 15:10:11;;;;;;;16.80;10.60;;;;;;;2.15;63.92;98326.03;13087841;22;20025;-81
2021/01/10 15:16:09;;;;;;;14.68;9.88;;;;;;;2.10;63.90;98331.59;13068626;22;20011;-82
2021/01/10 15:21:51;;;;;;;15.43;10.00;;;;;;;2.05;63.84;98326.94;13109993;22;20039;-81
2021/01/10 15:28:35;;;;;;;16.55;10.95;;;;;;;2.02;64.06;98325.94;13058265;22;20007;-82
2021/01/10 15:33:57;;;;;;;14.70;9.93;;;;;;;2.01;64.74;98327.22;13071670;22;20097;-77
2021/01/10 15:39:16;;;;;;;14.45;10.18;;;;;;;1.99;64.12;98329.75;13063999;22;20054;-75
2021/01/10 15:44:36;;;;;;;15.63;10.65;;;;;;;1.94;64.36;98334.09;13055108;22;20031;-75
2021/01/10 15:49:56;;;;;;;15.45;10.60;;;;;;;1.91;64.64;98335.13;13033439;22;20038;-74
2021/01/10 15:55:16;;;;;;;16.10;10.48;;;;;;;1.90;64.99;98332.91;13054873;22;20350;-74
2021/01/10 16:00:36;;;;;;;15.95;10.57;;;;;;;1.92;65.02;98346.88;13055179;22;20077;-76
2021/01/10 16:05:56;;;;;;;15.88;10.50;;;;;;;1.93;64.93;98331.84;13078350;22;20039;-77
2021/01/10 16:11:17;;;;;;;16.33;10.05;;;;;;;1.88;65.43;98333.41;13059373;22;20027;-77
2021/01/10 16:16:39;;;;;;;14.85;10.45;;;;;;;1.87;65.22;98334.69;13121629;22;20022;-77
2021/01/10 16:22:03;;;;;;;16.50;10.65;;;;;;;1.89;65.29;98332.16;13142097;22;20396;-77
2021/01/10 16:27:23;;;;;;;14.30;9.65;;;;;;;1.86;65.62;98326.94;13142347;22;20026;-78
2021/01/10 16:32:49;;;;;;;14.70;10.15;;;;;;;1.91;65.44;98340.63;13141993;22;20030;-77
2021/01/10 16:38:09;;;;;;;16.23;10.65;;;;;;;1.90;65.62;98330.88;13121196;22;20022;-76
2021/01/10 16:43:29;;;;;;;15.27;10.27;;;;;;;1.89;65.46;98329.41;13119857;22;20485;-74
2021/01/10 16:48:49;;;;;;;16.00;10.52;;;;;;;1.86;65.98;98330.44;13097000;22;20055;-75
2021/01/10 16:54:15;;;;;;;15.05;10.52;;;;;;;1.89;65.55;98326.66;13098270;22;20030;-75
2021/01/10 16:59:36;;;;;;;15.75;11.07;;;;;;;1.88;66.33;98333.41;13098476;22;20031;-74
2021/01/10 17:05:10;;;;;;;14.80;10.30;;;;;;;1.86;66.19;98330.44;13097741;22;20031;-81
2021/01/10 17:10:30;;;;;;;16.23;10.88;;;;;;;1.85;66.00;98333.72;13122696;22;20085;-78
2021/01/10 17:15:50;;;;;;;16.80;11.27;;;;;;;1.86;66.66;98338.72;13142642;22;20025;-78
2021/01/10 17:21:11;;;;;;;17.27;11.13;;;;;;;1.87;66.40;98334.69;13116979;22;20022;-78
2021/01/10 17:26:31;;;;;;;19.33;12.98;;;;;;;1.83;66.39;98345.25;13117478;22;20132;-76
2021/01/10 17:31:51;;;;;;;21.83;13.82;;;;;;;1.81;66.69;98342.25;13140205;22;20033;-79
2021/01/10 17:37:11;;;;;;;20.92;13.55;;;;;;;1.77;66.32;98339.09;13118214;22;20060;-77
2021/01/10 17:42:31;;;;;;;21.98;13.48;;;;;;;1.76;66.96;98340.34;13139275;22;20109;-77
2021/01/10 17:47:51;;;;;;;20.85;12.25;;;;;;;1.78;66.92;98340.56;13141982;22;20011;-78
2021/01/10 17:58:56;;;;;;;20.40;14.25;;;;;;;1.78;66.44;98340.56;12780199;23;20060;-80
2021/01/10 18:04:16;;;;;;;21.15;12.95;;;;;;;1.80;67.14;98340.78;12838720;23;20029;-79
2021/01/10 18:09:38;;;;;;;19.25;12.50;;;;;;;1.80;67.26;98340.03;12837851;23;20102;-78
2021/01/10 18:15:21;;;;;;;18.70;12.32;;;;;;;1.77;67.49;98335.59;12827130;23;20112;-82
2021/01/10 18:27:05;;;;;;;21.05;14.02;;;;;;;1.79;67.03;98339.28;13076004;22;20027;-74
2021/01/10 18:32:25;;;;;;;16.70;11.38;;;;;;;1.81;67.21;98347.78;12985946;22;20346;-74
2021/01/10 18:37:52;;;;;;;17.20;11.20;;;;;;;1.81;67.32;98339.50;13027794;22;20077;-77
2021/01/10 18:43:12;;;;;;;19.17;12.00;;;;;;;1.84;67.50;98338.50;13073290;22;20028;-75
2021/01/10 18:48:32;;;;;;;18.17;11.50;;;;;;;1.85;67.41;98339.22;13073645;22;20023;-75
2021/01/10 18:53:52;;;;;;;17.88;12.05;;;;;;;1.88;67.49;98341.69;13075529;22;20027;-76
2021/01/10 18:59:11;;;;;;;20.20;12.38;;;;;;;1.92;67.77;98336.59;13058327;22;20450;-78
2021/01/10 19:04:32;;;;;;;20.70;13.30;;;;;;;1.87;67.67;98334.69;13096232;22;20106;-79
2021/01/10 19:09:52;;;;;;;17.77;12.68;;;;;;;1.86;67.76;98341.47;13051729;22;20027;-77
2021/01/10 19:15:13;;;;;;;20.25;12.90;;;;;;;1.84;67.78;98341.25;13073573;22;20410;-77
2021/01/10 19:20:33;;;;;;;21.08;14.02;;;;;;;1.77;67.55;98341.84;13052120;22;20057;-78
2021/01/10 19:25:52;;;;;;;22.38;14.40;;;;;;;1.80;67.67;98345.53;13050825;22;20027;-77
2021/01/10 19:31:12;;;;;;;20.05;13.98;;;;;;;1.74;67.86;98342.88;13065678;22;20027;-77
2021/01/10 19:36:33;;;;;;;22.27;14.48;;;;;;;1.73;67.95;98346.88;13072831;22;20038;-77
2021/01/10 19:41:53;;;;;;;22.52;13.68;;;;;;;1.69;68.26;98343.69;13076810;22;20027;-78
2021/01/10 19:47:13;;;;;;;20.55;13.48;;;;;;;1.60;68.44;98344.06;13076793;22;20054;-78
2021/01/10 19:52:32;;;;;;;22.52;14.48;;;;;;;1.54;68.43;98348.88;13078109;22;20026;-79
2021/01/10 19:57:52;;;;;;;21.30;13.73;;;;;;;1.56;68.49;98346.38;13037242;22;20027;-78
2021/01/10 20:03:12;;;;;;;19.15;12.95;;;;;;;1.59;68.44;98337.06;13076859;22;20034;-77
2021/01/10 20:08:32;;;;;;;19.55;13.00;;;;;;;1.56;68.56;98338.09;13075457;22;20054;-77
2021/01/10 20:13:53;;;;;;;18.08;12.35;;;;;;;1.55;68.68;98340.13;13076508;22;20080;-78
2021/01/10 20:19:20;;;;;;;19.25;12.27;;;;;;;1.52;68.67;98330.13;13057038;22;20084;-78
2021/01/10 20:25:00;;;;;;;18.20;12.35;;;;;;;1.51;68.43;98325.91;13075995;22;20074;-78
2021/01/10 20:30:20;;;;;;;15.38;10.63;;;;;;;1.47;68.36;98319.94;13070821;22;20395;-78
2021/01/10 20:35:39;;;;;;;15.93;10.88;;;;;;;1.48;68.96;98326.19;13075942;22;20034;-76
2021/01/10 20:41:03;;;;;;;20.13;11.57;;;;;;;1.42;69.07;98318.75;13074104;22;20027;-76
2021/01/10 20:46:24;;;;;;;16.23;11.00;;;;;;;1.42;69.03;98313.25;13074256;22;20027;-77
2021/01/10 20:51:44;;;;;;;18.33;12.68;;;;;;;1.39;68.65;98319.03;13052973;22;20027;-76
2021/01/10 20:57:05;;;;;;;15.20;10.30;;;;;;;1.34;68.99;98312.34;13053203;22;20049;-76
2021/01/10 21:02:24;;;;;;;15.98;10.18;;;;;;;1.39;68.69;98314.28;13074965;22;20072;-78
2021/01/10 21:07:44;;;;;;;15.73;11.00;;;;;;;1.36;68.80;98317.34;13076204;22;20497;-77
2021/01/10 21:13:04;;;;;;;15.57;10.73;;;;;;;1.27;68.71;98320.44;13073552;22;20034;-77
2021/01/10 21:24:52;;;;;;;16.40;11.20;;;;;;;1.15;68.95;98322.56;13083495;22;20015;-81
2021/01/10 21:30:13;;;;;;;14.90;10.45;;;;;;;1.11;69.28;98328.34;13039133;22;20027;-81
2021/01/10 21:35:33;;;;;;;16.02;10.65;;;;;;;1.10;69.16;98326.88;13078991;22;20037;-80
2021/01/10 21:40:53;;;;;;;17.08;10.27;;;;;;;1.11;69.09;98328.34;13033953;22;20069;-80
2021/01/10 21:46:17;;;;;;;16.23;11.02;;;;;;;1.13;69.24;98323.06;13102093;22;20071;-81
2021/01/10 21:51:37;;;;;;;16.08;11.10;;;;;;;1.10;69.50;98328.88;13103729;22;20027;-80
2021/01/10 21:56:58;;;;;;;20.48;14.52;;;;;;;1.06;69.21;98325.66;13078380;22;20034;-80
2021/01/10 22:02:19;;;;;;;19.33;12.43;;;;;;;1.00;69.26;98338.72;13077609;22;20027;-80
2021/01/10 22:07:41;;;;;;;20.25;13.60;;;;;;;0.93;69.20;98331.06;13081393;22;20034;-81
2021/01/10 22:13:03;;;;;;;25.33;15.23;;;;;;;0.91;69.53;98330.81;13039821;22;20033;-81
2021/01/10 22:18:24;;;;;;;19.63;12.45;;;;;;;0.81;69.79;98327.69;13059742;22;20102;-81
2021/01/10 22:24:11;;;;;;;21.08;12.85;;;;;;;0.77;69.73;98322.47;13037864;22;20039;-81
2021/01/10 22:29:31;;;;;;;22.02;13.65;;;;;;;0.64;69.69;98324.34;12950516;22;20499;-81
2021/01/10 22:34:51;;;;;;;23.20;15.00;;;;;;;0.48;69.90;98321.25;12972911;23;20050;-81
2021/01/10 22:40:12;;;;;;;19.95;13.32;;;;;;;0.34;70.13;98319.59;12950309;23;20404;-81
2021/01/10 22:45:33;;;;;;;20.45;13.65;;;;;;;0.21;70.45;98306.47;12927720;23;20048;-81
2021/01/10 22:50:53;;;;;;;30.05;21.17;;;;;;;0.04;70.25;98305.09;12949649;23;20035;-81
2021/01/10 22:56:17;;;;;;;21.05;13.85;;;;;;;-0.14;70.36;98303.72;12949430;23;20052;-81
2021/01/10 23:01:37;;;;;;;18.85;12.88;;;;;;;-0.29;70.45;98298.56;13081958;22;20056;-81
2021/01/10 23:06:59;;;;;;;19.67;13.10;;;;;;;-0.41;70.83;98306.09;13102586;22;20027;-80
2021/01/10 23:12:19;;;;;;;19.95;13.82;;;;;;;-0.57;70.51;98298.72;13039927;22;20027;-81
2021/01/10 23:17:39;;;;;;;18.80;12.75;;;;;;;-0.67;70.92;98308.50;13064261;22;20027;-81
2021/01/10 23:23:01;;;;;;;18.42;11.50;;;;;;;-0.76;70.97;98301.28;13073162;22;20035;-81
2021/01/10 23:28:21;;;;;;;19.60;12.40;;;;;;;-0.90;71.50;98302.34;13104814;22;20027;-80
2021/01/10 23:33:41;;;;;;;21.02;13.93;;;;;;;-1.05;71.34;98297.16;13079143;22;20027;-81
2021/01/10 23:39:01;;;;;;;25.48;18.00;;;;;;;-1.17;71.47;98296.41;13037765;22;20350;-80
2021/01/10 23:44:21;;;;;;;21.38;13.90;;;;;;;-1.26;71.72;98287.72;13102479;22;20035;-80
2021/01/10 23:49:41;;;;;;;21.27;14.20;;;;;;;-1.30;71.87;98285.25;13077123;22;20053;-80
2021/01/10 23:55:01;;;;;;;22.25;15.07;;;;;;;-1.24;72.15;98279.78;13076368;22;20033;-80
